createdAt,value
2017-07-21T00:01:32.368Z,4.00
2017-07-21T00:04:06.477Z,3.80
2017-07-21T00:06:40.520Z,3.77
2017-07-21T00:09:14.718Z,4.33
2017-07-21T00:11:48.871Z,4.80
2017-07-21T00:14:22.989Z,4.17
2017-07-21T00:16:57.032Z,4.13
2017-07-21T00:19:31.072Z,4.00
2017-07-21T00:22:05.232Z,3.70
2017-07-21T00:24:39.385Z,4.50
2017-07-21T00:27:13.526Z,4.57
2017-07-21T00:29:47.747Z,4.20
2017-07-21T00:32:21.807Z,4.43
2017-07-21T00:34:56.185Z,4.23
2017-07-21T00:37:30.192Z,4.70
2017-07-21T00:40:04.384Z,4.33
2017-07-21T00:42:38.585Z,3.93
2017-07-21T00:45:12.625Z,4.57
2017-07-21T00:47:46.653Z,4.03
2017-07-21T00:50:20.805Z,8.03
2017-07-21T00:52:54.964Z,5.87
2017-07-21T00:55:28.996Z,4.47
2017-07-21T00:58:03.200Z,4.67
2017-07-21T01:00:37.400Z,4.47
2017-07-21T01:03:11.488Z,5.10
2017-07-21T01:05:45.511Z,4.60
2017-07-21T01:08:19.671Z,4.33
2017-07-21T01:10:53.897Z,3.90
2017-07-21T01:13:28.440Z,4.00
2017-07-21T01:16:02.484Z,3.90
2017-07-21T01:18:36.457Z,4.77
2017-07-21T01:21:10.572Z,4.03
2017-07-21T01:23:44.580Z,4.47
2017-07-21T01:26:18.733Z,4.30
2017-07-21T01:28:52.741Z,3.80
2017-07-21T01:31:26.800Z,8.30
2017-07-21T01:34:00.946Z,4.13
2017-07-21T01:36:35.027Z,3.70
2017-07-21T01:39:09.212Z,3.67
2017-07-21T01:41:43.440Z,3.40
2017-07-21T01:44:17.556Z,4.23
2017-07-21T01:46:51.650Z,4.43
2017-07-21T01:49:25.872Z,3.63
2017-07-21T01:52:00.040Z,3.70
2017-07-21T01:54:34.051Z,3.90
2017-07-21T01:57:08.371Z,4.23
2017-07-21T01:59:42.554Z,3.70
2017-07-21T02:02:16.984Z,3.50
2017-07-21T02:04:51.131Z,3.77
2017-07-21T02:07:25.142Z,4.33
2017-07-21T02:09:59.242Z,3.80
2017-07-21T02:12:33.428Z,3.50
2017-07-21T02:15:07.581Z,4.00
2017-07-21T02:17:41.584Z,4.40
2017-07-21T02:20:15.792Z,4.70
2017-07-21T02:22:49.933Z,3.50
2017-07-21T02:25:24.159Z,4.00
2017-07-21T02:27:58.337Z,4.30
2017-07-21T02:30:32.393Z,5.17
2017-07-21T02:33:06.614Z,3.67
2017-07-21T02:35:40.630Z,3.37
2017-07-21T02:38:14.741Z,3.60
2017-07-21T02:40:48.945Z,3.50
2017-07-21T02:43:23.120Z,4.00
2017-07-21T02:45:57.380Z,3.13
2017-07-21T02:48:31.414Z,3.57
2017-07-21T02:51:05.812Z,4.93
2017-07-21T02:53:39.793Z,3.20
2017-07-21T02:56:14.047Z,3.50
2017-07-21T02:58:48.224Z,4.83
2017-07-21T03:01:22.400Z,6.00
2017-07-21T03:03:56.534Z,3.53
2017-07-21T03:06:30.627Z,12.43
2017-07-21T03:09:04.807Z,3.10
2017-07-21T03:11:38.834Z,3.70
2017-07-21T03:14:12.937Z,3.80
2017-07-21T03:16:46.958Z,3.40
2017-07-21T03:19:21.100Z,6.30
2017-07-21T03:21:55.277Z,3.07
2017-07-21T03:24:29.351Z,3.17
2017-07-21T03:27:03.524Z,4.10
2017-07-21T03:29:37.660Z,3.10
2017-07-21T03:32:11.776Z,3.27
2017-07-21T03:34:45.835Z,3.60
2017-07-21T03:37:20.036Z,3.60
2017-07-21T03:39:54.195Z,3.50
2017-07-21T03:42:28.495Z,3.73
2017-07-21T03:45:02.718Z,3.60
2017-07-21T03:47:36.737Z,4.63
2017-07-21T03:50:10.943Z,5.47
2017-07-21T03:52:45.147Z,3.80
2017-07-21T03:55:19.346Z,3.60
2017-07-21T03:57:53.565Z,3.90
2017-07-21T04:00:27.676Z,4.43
2017-07-21T04:03:02.048Z,3.70
2017-07-21T04:05:36.096Z,5.63
2017-07-21T04:08:10.452Z,7.50
2017-07-21T04:10:44.577Z,3.53
2017-07-21T04:13:18.652Z,3.60
2017-07-21T04:15:52.789Z,3.60
2017-07-21T04:18:26.835Z,4.80
2017-07-21T04:21:01.012Z,4.87
2017-07-21T04:23:35.028Z,3.43
2017-07-21T04:26:09.229Z,4.00
2017-07-21T04:28:43.311Z,4.70
2017-07-21T04:31:17.484Z,4.13
2017-07-21T04:33:51.623Z,3.60
2017-07-21T04:36:25.737Z,4.57
2017-07-21T04:38:59.946Z,5.20
2017-07-21T04:41:33.929Z,3.47
2017-07-21T04:44:07.950Z,5.27
2017-07-21T04:46:41.984Z,4.70
2017-07-21T04:49:16.159Z,4.13
2017-07-21T04:51:50.504Z,4.30
2017-07-21T04:54:24.562Z,4.37
2017-07-21T04:56:58.716Z,3.70
2017-07-21T04:59:32.992Z,4.10
2017-07-21T05:02:07.065Z,4.70
2017-07-21T05:04:41.176Z,4.00
2017-07-21T05:07:15.356Z,3.90
2017-07-21T05:09:49.574Z,7.27
2017-07-21T05:12:23.644Z,4.47
2017-07-21T05:14:57.826Z,4.30
2017-07-21T05:17:32.005Z,4.00
2017-07-21T05:20:06.161Z,4.17
2017-07-21T05:22:40.293Z,3.97
2017-07-21T05:25:14.413Z,4.37
2017-07-21T05:27:48.410Z,5.40
2017-07-21T05:30:22.435Z,4.00
2017-07-21T05:32:56.660Z,4.20
2017-07-21T05:35:30.684Z,4.53
2017-07-21T05:38:04.711Z,3.97
2017-07-21T05:40:38.802Z,3.73
2017-07-21T05:43:12.953Z,4.13
2017-07-21T05:45:47.061Z,3.90
2017-07-21T05:48:21.237Z,5.40
2017-07-21T05:50:55.432Z,4.30
2017-07-21T05:53:29.532Z,4.33
2017-07-21T05:56:03.724Z,3.93
2017-07-21T05:58:37.916Z,4.03
2017-07-21T06:01:12.165Z,4.03
2017-07-21T06:03:46.187Z,3.77
2017-07-21T06:06:20.304Z,3.80
2017-07-21T06:08:54.468Z,3.73
2017-07-21T06:11:28.497Z,3.77
2017-07-21T06:14:02.646Z,3.97
2017-07-21T06:16:36.706Z,3.83
2017-07-21T06:19:10.857Z,3.37
2017-07-21T06:21:44.901Z,3.70
2017-07-21T06:24:19.111Z,3.63
2017-07-21T06:26:53.296Z,4.00
2017-07-21T06:29:27.517Z,4.17
2017-07-21T06:32:01.665Z,7.03
2017-07-21T06:34:35.828Z,4.10
2017-07-21T06:37:10.012Z,3.87
2017-07-21T06:39:44.004Z,4.10
2017-07-21T06:42:18.006Z,6.17
2017-07-21T06:44:52.140Z,5.20
2017-07-21T06:47:26.167Z,6.20
2017-07-21T06:50:00.267Z,4.50
2017-07-21T06:52:34.408Z,4.60
2017-07-21T06:55:08.720Z,6.20
2017-07-21T06:57:42.992Z,4.37
2017-07-21T07:00:17.003Z,4.07
2017-07-21T07:02:51.233Z,4.20
2017-07-21T07:05:25.309Z,4.90
2017-07-21T07:07:59.457Z,4.77
2017-07-21T07:10:33.625Z,5.50
2017-07-21T07:13:07.701Z,4.57
2017-07-21T07:15:41.869Z,4.10
2017-07-21T07:18:15.990Z,4.00
2017-07-21T07:20:50.252Z,5.07
2017-07-21T07:23:24.534Z,4.20
2017-07-21T07:25:58.797Z,6.33
2017-07-21T07:28:32.910Z,4.50
2017-07-21T07:31:07.075Z,4.40
2017-07-21T07:33:41.107Z,5.90
2017-07-21T07:36:15.312Z,4.77
2017-07-21T07:38:49.372Z,4.40
2017-07-21T07:41:23.607Z,6.87
2017-07-21T07:43:57.653Z,4.70
2017-07-21T07:46:31.725Z,4.23
2017-07-21T07:49:05.893Z,6.37
2017-07-21T07:51:40.050Z,4.83
2017-07-21T07:54:14.290Z,4.43
2017-07-21T07:56:48.330Z,6.03
2017-07-21T07:59:22.483Z,4.43
2017-07-21T08:01:56.492Z,4.77
2017-07-21T08:04:30.560Z,5.30
2017-07-21T08:07:04.545Z,4.33
2017-07-21T08:09:38.529Z,4.60
2017-07-21T08:12:12.758Z,4.80
2017-07-21T08:14:46.868Z,5.10
2017-07-21T08:17:20.909Z,4.33
2017-07-21T08:19:55.093Z,4.97
2017-07-21T08:22:29.076Z,4.50
2017-07-21T08:25:03.284Z,9.43
2017-07-21T08:27:37.445Z,5.00
2017-07-21T08:30:11.636Z,5.17
2017-07-21T08:32:45.892Z,4.60
2017-07-21T08:35:20.038Z,4.83
2017-07-21T08:37:54.273Z,5.00
2017-07-21T08:40:28.252Z,4.70
2017-07-21T08:43:02.357Z,4.67
2017-07-21T08:45:36.349Z,5.10
2017-07-21T08:48:10.479Z,4.70
2017-07-21T08:50:44.502Z,4.97
2017-07-21T08:53:18.691Z,4.63
2017-07-21T08:55:52.835Z,4.63
2017-07-21T08:58:26.848Z,4.50
2017-07-21T09:01:01.044Z,4.90
2017-07-21T09:03:35.105Z,4.97
2017-07-21T09:06:09.243Z,4.50
2017-07-21T09:08:43.240Z,4.57
2017-07-21T09:11:17.404Z,4.43
2017-07-21T09:13:52.538Z,4.60
2017-07-21T09:16:26.736Z,4.70
2017-07-21T09:19:00.873Z,4.77
2017-07-21T09:21:34.894Z,4.77
2017-07-21T09:24:09.045Z,5.30
2017-07-21T09:26:43.128Z,4.50
2017-07-21T09:29:17.220Z,5.43
2017-07-21T09:31:51.385Z,4.37
2017-07-21T09:34:25.470Z,4.40
2017-07-21T09:39:40.415Z,4.60
2017-07-21T09:42:14.584Z,4.20
2017-07-21T09:44:48.684Z,4.23
2017-07-21T09:47:22.671Z,4.63
2017-07-21T09:49:56.911Z,4.50
2017-07-21T09:52:30.922Z,4.63
2017-07-21T09:55:05.145Z,4.50
2017-07-21T09:57:39.133Z,4.80
2017-07-21T10:00:13.337Z,4.83
2017-07-21T10:02:47.448Z,4.93
2017-07-21T10:05:21.580Z,5.27
2017-07-21T10:07:55.752Z,5.17
2017-07-21T10:10:29.980Z,4.70
2017-07-21T10:13:04.017Z,4.50
2017-07-21T10:15:38.022Z,5.50
2017-07-21T10:18:12.191Z,4.77
2017-07-21T10:20:46.257Z,4.60
2017-07-21T10:23:20.256Z,5.13
2017-07-21T10:25:54.288Z,4.70
2017-07-21T10:28:28.458Z,5.30
2017-07-21T10:31:02.641Z,5.50
2017-07-21T10:33:36.694Z,5.07
2017-07-21T10:36:10.880Z,5.37
2017-07-21T10:38:45.069Z,4.50
2017-07-21T10:41:19.289Z,5.20
2017-07-21T10:43:53.312Z,4.57
2017-07-21T10:46:27.320Z,4.70
2017-07-21T10:49:01.453Z,4.90
2017-07-21T10:51:35.620Z,5.00
2017-07-21T10:54:09.818Z,4.70
2017-07-21T10:56:43.909Z,4.93
2017-07-21T10:59:17.948Z,4.53
2017-07-21T11:01:51.992Z,5.17
2017-07-21T11:04:26.167Z,4.70
2017-07-21T11:07:00.278Z,4.67
2017-07-21T11:16:04.513Z,5.03
2017-07-21T11:18:38.553Z,5.30
2017-07-21T11:21:12.763Z,5.37
2017-07-21T11:23:46.868Z,5.00
2017-07-21T11:26:21.303Z,4.90
2017-07-21T11:28:55.396Z,5.80
2017-07-21T11:31:29.388Z,5.60
2017-07-21T11:34:03.597Z,5.27
2017-07-21T11:36:37.621Z,5.20
2017-07-21T11:45:41.291Z,4.90
2017-07-21T11:48:15.493Z,5.17
2017-07-21T11:50:49.607Z,5.67
2017-07-21T11:53:23.889Z,5.70
2017-07-21T11:55:58.069Z,4.87
2017-07-21T11:58:32.068Z,5.47
2017-07-21T12:01:06.201Z,5.83
2017-07-21T12:06:55.197Z,5.67
2017-07-21T12:09:29.213Z,5.80
2017-07-21T12:15:18.321Z,4.80
2017-07-21T12:17:52.500Z,5.30
2017-07-21T12:20:26.544Z,5.37
2017-07-21T12:23:00.729Z,5.33
2017-07-21T12:25:34.826Z,5.83
2017-07-21T12:28:09.028Z,5.40
2017-07-21T12:30:43.193Z,5.10
2017-07-21T12:33:17.484Z,5.63
2017-07-21T12:35:51.744Z,5.10
2017-07-21T12:38:26.092Z,6.00
2017-07-21T12:41:00.249Z,5.47
2017-07-21T12:43:34.288Z,5.93
2017-07-21T12:49:23.237Z,5.47
2017-07-21T12:51:57.505Z,5.57
2017-07-21T12:54:31.580Z,5.60
2017-07-21T12:57:05.716Z,5.40
2017-07-21T12:59:39.943Z,5.85
2017-07-21T13:05:29.225Z,5.60
2017-07-21T13:08:03.451Z,5.60
2017-07-21T13:10:37.500Z,5.80
2017-07-21T13:13:11.568Z,5.57
2017-07-21T13:15:45.584Z,5.40
2017-07-21T13:21:34.629Z,6.03
2017-07-21T13:24:08.846Z,5.87
2017-07-21T13:26:42.904Z,6.07
2017-07-21T13:29:16.971Z,6.30
2017-07-21T13:35:05.954Z,6.47
2017-07-21T13:37:40.052Z,5.80
2017-07-21T13:40:14.182Z,5.78
2017-07-21T13:42:48.349Z,5.70
2017-07-21T13:45:22.509Z,5.45
2017-07-21T13:47:56.690Z,5.53
2017-07-21T13:50:30.760Z,5.30
2017-07-21T13:53:04.961Z,5.68
2017-07-21T13:55:38.946Z,5.77
2017-07-21T13:58:13.044Z,5.70
2017-07-21T14:00:47.164Z,9.13
2017-07-21T14:03:21.342Z,7.13
2017-07-21T14:05:55.516Z,6.10
2017-07-21T14:08:29.548Z,6.57
2017-07-21T14:11:03.685Z,5.97
2017-07-21T14:13:38.274Z,6.30
2017-07-21T14:16:12.392Z,6.30
2017-07-21T14:18:46.456Z,6.03
2017-07-21T14:21:20.633Z,5.87
2017-07-21T14:23:54.833Z,5.80
2017-07-21T14:26:28.900Z,5.67
2017-07-21T14:29:02.961Z,6.45
2017-07-21T14:31:37.016Z,6.10
2017-07-21T14:34:11.209Z,6.25
2017-07-21T14:36:45.387Z,6.43
2017-07-21T14:39:19.552Z,5.72
2017-07-21T14:41:53.536Z,6.23
2017-07-21T14:44:27.725Z,6.20
2017-07-21T14:47:01.963Z,6.10
2017-07-21T14:49:36.008Z,6.40
2017-07-21T14:52:10.204Z,6.00
2017-07-21T14:54:44.272Z,5.73
2017-07-21T14:57:18.295Z,6.20
2017-07-21T14:59:52.469Z,5.73
2017-07-21T15:05:41.684Z,5.50
2017-07-21T15:08:15.810Z,5.77
2017-07-21T15:10:49.908Z,6.33
2017-07-21T15:13:24.480Z,5.77
2017-07-21T15:19:13.064Z,5.90
2017-07-21T15:21:47.165Z,5.70
2017-07-21T15:24:21.315Z,6.13
2017-07-21T15:26:55.427Z,5.80
2017-07-21T15:29:29.453Z,5.53
2017-07-21T15:32:03.634Z,5.80
2017-07-21T15:34:37.678Z,5.57
2017-07-21T15:37:11.817Z,5.80
2017-07-21T15:39:45.897Z,5.53
2017-07-21T15:45:35.255Z,5.60
2017-07-21T15:48:09.388Z,5.90
2017-07-21T15:50:43.489Z,5.60
2017-07-21T15:53:17.723Z,5.20
2017-07-21T15:55:51.765Z,5.37
2017-07-21T15:58:25.917Z,5.70
2017-07-21T16:01:00.006Z,5.80
2017-07-21T16:03:34.264Z,5.60
2017-07-21T16:06:08.440Z,6.00
2017-07-21T16:08:42.478Z,5.47
2017-07-21T16:11:16.612Z,5.83
2017-07-21T16:13:52.550Z,5.60
2017-07-21T16:16:26.819Z,5.20
2017-07-21T16:19:00.955Z,5.27
2017-07-21T16:21:34.948Z,5.43
2017-07-21T16:24:09.091Z,5.00
2017-07-21T16:26:43.113Z,4.90
2017-07-21T16:29:17.237Z,5.10
2017-07-21T16:31:51.260Z,4.73
2017-07-21T16:34:25.400Z,4.90
2017-07-21T16:36:59.540Z,4.80
2017-07-21T16:39:33.641Z,5.30
2017-07-21T16:42:07.852Z,5.20
2017-07-21T16:44:42.050Z,5.30
2017-07-21T16:47:16.201Z,6.00
2017-07-21T16:49:50.216Z,5.17
2017-07-21T16:52:24.380Z,5.00
2017-07-21T16:54:58.528Z,5.20
2017-07-21T16:57:32.685Z,5.00
2017-07-21T17:00:06.882Z,6.47
2017-07-21T17:05:55.636Z,5.63
2017-07-21T17:08:29.696Z,5.17
2017-07-21T17:11:03.986Z,5.67
2017-07-21T17:13:39.370Z,5.33
2017-07-21T17:16:13.584Z,5.57
2017-07-21T17:18:47.584Z,6.33
2017-07-21T17:21:21.600Z,5.83
2017-07-21T17:27:11.039Z,5.73
2017-07-21T17:29:45.196Z,5.50
2017-07-21T17:32:19.369Z,5.77
2017-07-21T17:34:53.371Z,5.70
2017-07-21T17:37:27.484Z,5.73
2017-07-21T17:40:01.691Z,5.97
2017-07-21T17:45:51.336Z,6.30
2017-07-21T17:48:25.624Z,5.50
2017-07-21T17:50:59.789Z,6.33
2017-07-21T17:53:33.875Z,5.57
2017-07-21T17:56:07.984Z,6.13
2017-07-21T17:58:42.124Z,6.07
2017-07-21T18:01:16.316Z,5.67
2017-07-21T18:03:50.346Z,6.20
2017-07-21T18:06:24.331Z,5.33
2017-07-21T18:08:58.496Z,5.43
2017-07-21T18:11:32.617Z,6.10
2017-07-21T18:14:06.674Z,5.73
2017-07-21T18:16:40.744Z,5.47
2017-07-21T18:25:44.901Z,7.37
2017-07-21T18:28:18.945Z,5.70
2017-07-21T18:30:53.072Z,6.23
2017-07-21T18:33:27.208Z,6.10
2017-07-21T18:36:01.376Z,6.30
2017-07-21T18:38:35.469Z,6.60
2017-07-21T18:41:09.634Z,6.60
2017-07-21T18:43:43.874Z,6.70
2017-07-21T18:46:17.896Z,5.77
2017-07-21T18:48:51.980Z,6.20
2017-07-21T18:54:41.381Z,6.53
2017-07-21T18:57:15.605Z,6.57
2017-07-21T18:59:49.741Z,7.03
2017-07-21T19:05:38.670Z,5.57
2017-07-21T19:08:12.869Z,6.50
2017-07-21T19:10:46.927Z,5.70
2017-07-21T19:13:21.447Z,7.60
2017-07-21T19:15:55.801Z,6.80
2017-07-21T19:18:29.993Z,7.00
2017-07-21T19:21:04.172Z,7.17
2017-07-21T19:23:38.416Z,6.90
2017-07-21T19:29:27.500Z,5.93
2017-07-21T19:35:16.726Z,6.67
2017-07-21T19:37:50.962Z,8.70
2017-07-21T19:40:25.082Z,6.87
2017-07-21T19:42:59.177Z,7.60
2017-07-21T19:45:33.269Z,7.73
2017-07-21T19:48:07.546Z,9.43
2017-07-21T19:50:41.743Z,7.87
2017-07-21T19:53:15.789Z,7.30
2017-07-21T19:55:50.050Z,6.70
2017-07-21T19:58:24.200Z,7.20
2017-07-21T20:00:59.849Z,6.73
2017-07-21T20:06:49.663Z,7.90
2017-07-21T20:09:23.986Z,7.17
2017-07-21T20:11:58.113Z,6.93
2017-07-21T20:14:32.348Z,7.93
2017-07-21T20:17:06.453Z,7.30
2017-07-21T20:19:40.920Z,8.00
2017-07-21T20:25:30.412Z,7.50
2017-07-21T20:28:04.551Z,7.90
2017-07-21T20:30:38.616Z,7.90
2017-07-21T20:33:12.742Z,7.23
2017-07-21T20:39:02.123Z,6.57
2017-07-21T20:41:36.140Z,8.33
2017-07-21T20:44:10.308Z,7.63
2017-07-21T20:46:44.503Z,7.60
2017-07-21T20:49:18.742Z,8.53
2017-07-21T20:51:52.985Z,7.37
2017-07-21T20:54:27.214Z,7.63
2017-07-21T20:57:01.417Z,7.60
2017-07-21T20:59:35.500Z,7.90
2017-07-21T21:08:39.954Z,8.57
2017-07-21T21:11:14.020Z,8.30
2017-07-21T21:13:49.173Z,8.10
2017-07-21T21:16:23.330Z,8.50
2017-07-21T21:18:58.319Z,9.47
2017-07-21T21:21:32.503Z,8.47
2017-07-21T21:24:06.669Z,7.80
2017-07-21T21:26:40.974Z,8.40
2017-07-21T21:29:15.125Z,8.00
2017-07-21T21:31:49.481Z,8.07
2017-07-21T21:34:23.660Z,8.57
2017-07-21T21:36:58.705Z,9.90
2017-07-21T21:46:03.308Z,8.90
2017-07-21T21:48:37.424Z,9.30
2017-07-21T21:51:11.504Z,9.40
2017-07-21T21:53:45.580Z,8.27
2017-07-21T21:56:19.807Z,9.80
2017-07-21T21:58:54.169Z,8.97
2017-07-21T22:01:28.200Z,10.50
2017-07-21T22:04:02.537Z,10.00
2017-07-21T22:06:36.769Z,9.77
2017-07-21T22:09:10.891Z,8.87
2017-07-21T22:11:45.560Z,8.67
2017-07-21T22:14:19.959Z,13.33
2017-07-21T22:16:54.382Z,9.60
2017-07-21T22:19:28.568Z,9.67
2017-07-21T22:22:03.529Z,9.00
2017-07-21T22:24:37.629Z,9.50
2017-07-21T22:27:12.354Z,9.10
2017-07-21T22:29:46.363Z,8.80
2017-07-21T22:32:20.591Z,9.57
2017-07-21T22:34:54.851Z,9.33
2017-07-21T22:37:29.101Z,9.10
2017-07-21T22:40:03.351Z,8.93
2017-07-21T22:42:37.462Z,9.47
2017-07-21T22:45:11.616Z,9.30
2017-07-21T22:47:45.713Z,9.33
2017-07-21T22:50:20.010Z,9.43
2017-07-21T22:52:54.224Z,9.13
2017-07-21T22:55:28.292Z,9.67
2017-07-21T22:58:02.441Z,8.73
2017-07-21T23:00:37.004Z,9.27
2017-07-21T23:03:11.084Z,9.47
2017-07-21T23:05:45.143Z,9.43
2017-07-21T23:08:19.268Z,8.77
2017-07-21T23:10:53.497Z,9.53
2017-07-21T23:13:28.197Z,8.90
2017-07-21T23:16:02.421Z,9.03
2017-07-21T23:18:36.468Z,8.73
2017-07-21T23:21:10.667Z,8.93
2017-07-21T23:23:44.913Z,8.77
2017-07-21T23:26:19.100Z,8.77
2017-07-21T23:28:53.107Z,7.90
2017-07-21T23:31:27.157Z,11.37
2017-07-21T23:34:01.258Z,9.50
2017-07-21T23:36:35.308Z,9.33
2017-07-21T23:39:09.560Z,8.30
2017-07-21T23:41:43.625Z,8.73
2017-07-21T23:44:17.798Z,8.73
2017-07-21T23:46:52.164Z,9.40
2017-07-21T23:49:26.313Z,8.50
2017-07-21T23:52:00.492Z,9.70
2017-07-21T23:54:34.574Z,9.33
2017-07-21T23:57:08.607Z,9.50
2017-07-21T23:59:42.711Z,9.30
